CST,Max TemperatureF,Mean TemperatureF,Min TemperatureF,Max Dew PointF,MeanDew PointF,Min DewpointF,Max Humidity, Mean Humidity, Min Humidity, Max Sea Level PressureIn, Mean Sea Level PressureIn, Min Sea Level PressureIn, Max VisibilityMiles, Mean VisibilityMiles, Min VisibilityMiles, Max Wind SpeedMPH, Mean Wind SpeedMPH, Max Gust SpeedMPH,PrecipitationIn, CloudCover, Events, WindDirDegrees
2012-12-1,73,60,47,55,49,46,95,74,39,30.32,30.27,30.25,10,10,10,8,5,,0.00,1,,60
2012-12-2,75,62,48,59,53,47,97,80,49,30.35,30.28,30.23,10,10,10,7,4,,0.00,2,,80
2012-12-3,77,64,51,59,53,50,97,75,38,30.31,30.25,30.21,10,10,10,13,4,,0.00,3,,93
2012-12-4,77,62,48,61,52,48,100,84,42,30.30,30.25,30.19,10,6,0,9,3,,0.00,0,Fog,78
2012-12-5,75,62,49,58,53,49,97,75,43,30.22,30.14,30.08,10,10,10,7,3,,0.00,1,,73
2012-12-6,73,62,50,57,53,48,92,77,51,30.09,30.04,30.00,10,10,10,9,5,,0.00,2,,64
2012-12-7,63,60,56,57,57,55,96,90,81,30.07,30.01,29.97,10,10,10,10,6,,0.00,7,,71
2012-12-8,73,64,56,64,61,55,100,91,69,30.06,30.01,29.96,10,6,0,10,3,,0.00,7,Fog-Rain,142
2012-12-9,74,68,62,64,62,58,100,88,55,30.10,30.05,29.97,10,7,1,12,4,,0.00,6,Rain,160
2012-12-10,77,67,56,66,63,54,100,89,65,29.95,29.87,29.76,10,7,0,23,8,29,0.17,7,Fog-Rain,209
2012-12-11,55,49,42,54,46,37,95,85,71,30.15,29.98,29.89,10,10,8,13,8,,0.07,7,Rain,335
2012-12-12,48,43,38,41,39,37,95,84,71,30.22,30.15,30.09,10,10,10,10,7,,0.03,7,Rain,359
2012-12-13,60,48,37,45,41,36,100,84,52,30.33,30.28,30.22,10,10,10,14,7,,0.00,4,,30
2012-12-14,63,52,41,48,43,41,100,88,53,30.35,30.29,30.16,10,9,3,14,6,20,0.00,6,,58
2012-12-15,66,56,46,54,50,46,96,84,63,30.21,30.12,30.05,10,10,10,9,3,,0.00,5,,112
2012-12-16,71,62,53,66,59,52,100,93,73,30.05,29.97,29.88,10,7,0,24,6,31,0.14,7,Fog-Rain,153
2012-12-17,62,60,57,63,59,55,100,96,86,29.91,29.82,29.74,10,6,0,15,7,,0.89,7,Fog-Rain-Thunderstorm,211
2012-12-18,66,54,41,59,47,33,100,78,30,30.06,29.95,29.83,10,10,7,8,6,,0.01,1,,277
2012-12-19,71,54,37,50,43,35,95,72,34,30.12,30.06,30.02,10,10,10,10,3,,0.00,0,,119
2012-12-20,71,58,44,68,59,30,100,87,48,30.10,29.85,29.76,10,6,0,23,11,33,1.19,6,Fog-Rain-Thunderstorm,219
2012-12-21,53,44,32,26,18,12,58,39,21,30.29,30.20,30.11,10,10,10,18,12,29,0.00,0,,296
2012-12-22,58,42,25,29,20,13,85,49,18,30.39,30.30,30.26,10,10,6,14,5,,0.00,0,,302
2012-12-23,54,42,30,39,34,28,91,73,45,30.27,30.19,30.08,10,10,10,7,1,,0.00,3,,156
2012-12-24,69,59,49,64,58,42,100,92,75,30.06,29.93,29.87,10,5,0,18,7,23,0.63,6,Fog-Rain-Thunderstorm,189
2012-12-25,68,64,59,66,62,59,100,98,87,29.94,29.83,29.58,10,5,0,24,6,36,0.69,7,Fog-Rain-Thunderstorm,120
2012-12-26,68,53,37,64,41,30,94,74,61,30.10,29.82,29.62,10,9,0,30,19,43,0.30,7,Fog-Rain-Thunderstorm,275
2012-12-27,50,42,34,33,31,30,92,72,51,30.17,30.12,30.08,10,10,10,14,7,,0.00,4,,341
2012-12-28,55,44,32,51,44,30,100,84,58,30.11,29.89,29.77,10,7,2,17,5,24,0.50,7,Rain,113
2012-12-29,52,46,35,52,43,24,100,85,61,30.34,29.97,29.76,10,9,4,17,7,26,0.05,8,Rain,315
2012-12-30,52,40,27,30,26,24,89,65,35,30.48,30.40,30.34,10,10,10,9,6,,0.00,0,,342
2012-12-31,61,46,30,50,43,28,90,74,59,30.38,30.27,30.14,10,10,7,8,4,,0.00,5,,94